sensor_id;sensor_type;location;lat;lon;timestamp;P1;durP1;ratioP1;P2;durP2;ratioP2
10063;SDS011;5071;52.360;13.134;2022-10-03T00:03:44;9.00;;;1.77;;
10063;SDS011;5071;52.360;13.134;2022-10-03T00:08:57;10.20;;;2.43;;
10063;SDS011;5071;52.360;13.134;2022-10-03T00:14:16;7.93;;;1.83;;
10063;SDS011;5071;52.360;13.134;2022-10-03T00:19:25;12.53;;;2.00;;
10063;SDS011;5071;52.360;13.134;2022-10-03T00:24:40;11.57;;;1.83;;
10063;SDS011;5071;52.360;13.134;2022-10-03T00:29:58;8.53;;;2.37;;
10063;SDS011;5071;52.360;13.134;2022-10-03T00:35:14;7.40;;;1.57;;
10063;SDS011;5071;52.360;13.134;2022-10-03T00:40:31;6.67;;;1.40;;
10063;SDS011;5071;52.360;13.134;2022-10-03T00:45:49;9.70;;;1.77;;
10063;SDS011;5071;52.360;13.134;2022-10-03T00:51:11;8.50;;;1.83;;
10063;SDS011;5071;52.360;13.134;2022-10-03T00:56:35;12.10;;;2.07;;
10063;SDS011;5071;52.360;13.134;2022-10-03T01:01:49;11.73;;;1.93;;
10063;SDS011;5071;52.360;13.134;2022-10-03T01:06:54;10.13;;;2.10;;
10063;SDS011;5071;52.360;13.134;2022-10-03T01:12:08;10.77;;;2.07;;
10063;SDS011;5071;52.360;13.134;2022-10-03T01:17:23;14.83;;;2.00;;
10063;SDS011;5071;52.360;13.134;2022-10-03T01:22:38;14.63;;;2.20;;
10063;SDS011;5071;52.360;13.134;2022-10-03T01:28:18;10.17;;;1.87;;
10063;SDS011;5071;52.360;13.134;2022-10-03T01:33:43;7.63;;;1.87;;
10063;SDS011;5071;52.360;13.134;2022-10-03T01:38:53;11.50;;;1.97;;
10063;SDS011;5071;52.360;13.134;2022-10-03T01:44:00;11.23;;;2.07;;
10063;SDS011;5071;52.360;13.134;2022-10-03T01:49:14;8.37;;;1.90;;
10063;SDS011;5071;52.360;13.134;2022-10-03T01:54:27;9.43;;;2.07;;
10063;SDS011;5071;52.360;13.134;2022-10-03T01:59:38;9.13;;;1.57;;
10063;SDS011;5071;52.360;13.134;2022-10-03T02:04:50;5.10;;;1.93;;
10063;SDS011;5071;52.360;13.134;2022-10-03T02:10:02;9.90;;;1.33;;
10063;SDS011;5071;52.360;13.134;2022-10-03T02:15:16;14.83;;;2.03;;
10063;SDS011;5071;52.360;13.134;2022-10-03T02:20:27;7.30;;;1.43;;
10063;SDS011;5071;52.360;13.134;2022-10-03T02:25:40;9.60;;;1.97;;
10063;SDS011;5071;52.360;13.134;2022-10-03T02:42:21;12.20;;;2.30;;
10063;SDS011;5071;52.360;13.134;2022-10-03T02:59:43;11.83;;;2.53;;
10063;SDS011;5071;52.360;13.134;2022-10-03T03:10:43;6.07;;;1.80;;
10063;SDS011;5071;52.360;13.134;2022-10-03T03:21:43;8.30;;;1.80;;
10063;SDS011;5071;52.360;13.134;2022-10-03T03:27:06;11.80;;;1.90;;
10063;SDS011;5071;52.360;13.134;2022-10-03T03:32:26;7.30;;;1.80;;
10063;SDS011;5071;52.360;13.134;2022-10-03T03:37:39;9.60;;;1.57;;
10063;SDS011;5071;52.360;13.134;2022-10-03T03:43:00;7.90;;;1.60;;
10063;SDS011;5071;52.360;13.134;2022-10-03T03:48:25;9.10;;;1.77;;
10063;SDS011;5071;52.360;13.134;2022-10-03T03:59:34;6.07;;;1.20;;
10063;SDS011;5071;52.360;13.134;2022-10-03T04:04:53;10.70;;;1.70;;
10063;SDS011;5071;52.360;13.134;2022-10-03T04:10:05;9.47;;;1.60;;
10063;SDS011;5071;52.360;13.134;2022-10-03T04:15:26;7.87;;;1.87;;
10063;SDS011;5071;52.360;13.134;2022-10-03T04:20:45;13.07;;;2.13;;
10063;SDS011;5071;52.360;13.134;2022-10-03T04:26:08;10.17;;;2.27;;
10063;SDS011;5071;52.360;13.134;2022-10-03T04:37:07;6.67;;;1.57;;
10063;SDS011;5071;52.360;13.134;2022-10-03T04:42:22;10.13;;;1.90;;
10063;SDS011;5071;52.360;13.134;2022-10-03T04:47:32;8.60;;;1.93;;
10063;SDS011;5071;52.360;13.134;2022-10-03T04:52:45;6.60;;;1.87;;
10063;SDS011;5071;52.360;13.134;2022-10-03T04:57:55;7.97;;;1.43;;
10063;SDS011;5071;52.360;13.134;2022-10-03T05:03:11;5.97;;;1.60;;
10063;SDS011;5071;52.360;13.134;2022-10-03T05:08:21;5.47;;;2.13;;
10063;SDS011;5071;52.360;13.134;2022-10-03T05:13:38;12.30;;;2.23;;
10063;SDS011;5071;52.360;13.134;2022-10-03T05:18:53;8.40;;;2.30;;
10063;SDS011;5071;52.360;13.134;2022-10-03T05:24:01;8.47;;;1.90;;
10063;SDS011;5071;52.360;13.134;2022-10-03T05:29:20;16.97;;;2.70;;
10063;SDS011;5071;52.360;13.134;2022-10-03T05:34:31;10.77;;;2.20;;
10063;SDS011;5071;52.360;13.134;2022-10-03T05:39:44;6.13;;;2.40;;
10063;SDS011;5071;52.360;13.134;2022-10-03T05:44:58;8.93;;;2.50;;
10063;SDS011;5071;52.360;13.134;2022-10-03T05:50:13;11.03;;;1.97;;
10063;SDS011;5071;52.360;13.134;2022-10-03T05:55:28;7.47;;;2.20;;
10063;SDS011;5071;52.360;13.134;2022-10-03T06:00:40;5.00;;;1.67;;
10063;SDS011;5071;52.360;13.134;2022-10-03T06:06:00;13.60;;;1.80;;
10063;SDS011;5071;52.360;13.134;2022-10-03T06:11:13;7.13;;;1.60;;
10063;SDS011;5071;52.360;13.134;2022-10-03T06:16:25;8.10;;;1.40;;
10063;SDS011;5071;52.360;13.134;2022-10-03T06:27:26;4.63;;;1.30;;
10063;SDS011;5071;52.360;13.134;2022-10-03T06:33:08;7.50;;;1.67;;
10063;SDS011;5071;52.360;13.134;2022-10-03T06:44:33;9.13;;;1.60;;
10063;SDS011;5071;52.360;13.134;2022-10-03T06:49:56;7.00;;;1.80;;
10063;SDS011;5071;52.360;13.134;2022-10-03T06:55:26;10.27;;;2.00;;
10063;SDS011;5071;52.360;13.134;2022-10-03T07:00:53;7.37;;;1.50;;
10063;SDS011;5071;52.360;13.134;2022-10-03T07:11:51;6.47;;;1.70;;
10063;SDS011;5071;52.360;13.134;2022-10-03T07:17:19;6.23;;;1.60;;
10063;SDS011;5071;52.360;13.134;2022-10-03T07:22:47;7.33;;;1.47;;
10063;SDS011;5071;52.360;13.134;2022-10-03T07:45:18;10.47;;;1.70;;
10063;SDS011;5071;52.360;13.134;2022-10-03T07:50:48;8.90;;;1.40;;
10063;SDS011;5071;52.360;13.134;2022-10-03T07:56:00;7.70;;;1.47;;
10063;SDS011;5071;52.360;13.134;2022-10-03T08:01:16;9.67;;;1.80;;
10063;SDS011;5071;52.360;13.134;2022-10-03T08:06:37;8.73;;;1.70;;
10063;SDS011;5071;52.360;13.134;2022-10-03T08:23:40;7.30;;;1.40;;
10063;SDS011;5071;52.360;13.134;2022-10-03T08:29:07;7.47;;;1.23;;
10063;SDS011;5071;52.360;13.134;2022-10-03T08:34:29;8.83;;;1.47;;
10063;SDS011;5071;52.360;13.134;2022-10-03T08:39:52;6.97;;;1.47;;
10063;SDS011;5071;52.360;13.134;2022-10-03T08:56:45;10.47;;;1.53;;
10063;SDS011;5071;52.360;13.134;2022-10-03T09:02:07;5.80;;;1.27;;
10063;SDS011;5071;52.360;13.134;2022-10-03T09:13:11;3.73;;;1.40;;
10063;SDS011;5071;52.360;13.134;2022-10-03T09:18:38;6.97;;;1.53;;
10063;SDS011;5071;52.360;13.134;2022-10-03T09:24:02;2.50;;;1.03;;
10063;SDS011;5071;52.360;13.134;2022-10-03T09:29:22;5.73;;;1.43;;
10063;SDS011;5071;52.360;13.134;2022-10-03T09:34:58;7.47;;;1.63;;
10063;SDS011;5071;52.360;13.134;2022-10-03T09:40:36;10.30;;;1.37;;
10063;SDS011;5071;52.360;13.134;2022-10-03T09:51:48;9.33;;;1.43;;
10063;SDS011;5071;52.360;13.134;2022-10-03T09:57:02;5.43;;;1.60;;
10063;SDS011;5071;52.360;13.134;2022-10-03T10:02:48;6.73;;;2.27;;
10063;SDS011;5071;52.360;13.134;2022-10-03T10:08:15;6.23;;;1.30;;
10063;SDS011;5071;52.360;13.134;2022-10-03T10:19:20;6.57;;;1.30;;
10063;SDS011;5071;52.360;13.134;2022-10-03T10:30:13;7.17;;;1.57;;
10063;SDS011;5071;52.360;13.134;2022-10-03T10:35:35;4.47;;;1.13;;
10063;SDS011;5071;52.360;13.134;2022-10-03T10:41:07;11.13;;;1.47;;
10063;SDS011;5071;52.360;13.134;2022-10-03T10:46:44;5.90;;;1.13;;
10063;SDS011;5071;52.360;13.134;2022-10-03T10:52:20;5.70;;;1.53;;
10063;SDS011;5071;52.360;13.134;2022-10-03T11:03:50;3.57;;;0.83;;
10063;SDS011;5071;52.360;13.134;2022-10-03T11:38:11;3.13;;;0.93;;
10063;SDS011;5071;52.360;13.134;2022-10-03T11:43:41;4.00;;;1.27;;
10063;SDS011;5071;52.360;13.134;2022-10-03T11:49:04;3.83;;;0.97;;
10063;SDS011;5071;52.360;13.134;2022-10-03T11:54:21;2.53;;;1.10;;
10063;SDS011;5071;52.360;13.134;2022-10-03T11:59:52;4.17;;;1.10;;
10063;SDS011;5071;52.360;13.134;2022-10-03T12:04:59;6.63;;;2.00;;
10063;SDS011;5071;52.360;13.134;2022-10-03T12:10:10;6.30;;;1.40;;
10063;SDS011;5071;52.360;13.134;2022-10-03T12:15:29;6.30;;;1.57;;
10063;SDS011;5071;52.360;13.134;2022-10-03T12:20:40;6.33;;;1.20;;
10063;SDS011;5071;52.360;13.134;2022-10-03T12:25:56;4.43;;;1.40;;
10063;SDS011;5071;52.360;13.134;2022-10-03T12:31:02;4.83;;;1.20;;
10063;SDS011;5071;52.360;13.134;2022-10-03T12:36:11;6.53;;;1.33;;
10063;SDS011;5071;52.360;13.134;2022-10-03T12:41:20;4.23;;;1.00;;
10063;SDS011;5071;52.360;13.134;2022-10-03T12:46:35;2.83;;;1.20;;
10063;SDS011;5071;52.360;13.134;2022-10-03T12:51:50;3.30;;;0.90;;
10063;SDS011;5071;52.360;13.134;2022-10-03T12:57:02;4.83;;;0.90;;
10063;SDS011;5071;52.360;13.134;2022-10-03T13:02:21;3.43;;;0.97;;
10063;SDS011;5071;52.360;13.134;2022-10-03T13:07:26;5.00;;;0.83;;
10063;SDS011;5071;52.360;13.134;2022-10-03T13:12:44;2.50;;;0.70;;
10063;SDS011;5071;52.360;13.134;2022-10-03T13:17:50;3.57;;;0.90;;
10063;SDS011;5071;52.360;13.134;2022-10-03T13:23:02;5.00;;;1.07;;
10063;SDS011;5071;52.360;13.134;2022-10-03T13:28:10;2.87;;;0.80;;
10063;SDS011;5071;52.360;13.134;2022-10-03T13:33:16;4.40;;;0.97;;
10063;SDS011;5071;52.360;13.134;2022-10-03T13:38:35;5.33;;;1.10;;
10063;SDS011;5071;52.360;13.134;2022-10-03T13:43:47;6.87;;;1.17;;
10063;SDS011;5071;52.360;13.134;2022-10-03T13:48:55;3.73;;;0.80;;
10063;SDS011;5071;52.360;13.134;2022-10-03T13:54:04;4.17;;;1.43;;
10063;SDS011;5071;52.360;13.134;2022-10-03T13:59:14;5.23;;;0.93;;
10063;SDS011;5071;52.360;13.134;2022-10-03T14:04:42;5.20;;;0.80;;
10063;SDS011;5071;52.360;13.134;2022-10-03T14:09:56;4.50;;;1.23;;
10063;SDS011;5071;52.360;13.134;2022-10-03T14:26:27;6.00;;;1.60;;
10063;SDS011;5071;52.360;13.134;2022-10-03T14:31:36;4.03;;;1.23;;
10063;SDS011;5071;52.360;13.134;2022-10-03T14:36:48;6.50;;;1.53;;
10063;SDS011;5071;52.360;13.134;2022-10-03T14:42:04;5.03;;;1.77;;
10063;SDS011;5071;52.360;13.134;2022-10-03T14:47:19;4.50;;;1.13;;
10063;SDS011;5071;52.360;13.134;2022-10-03T14:52:23;3.27;;;0.80;;
10063;SDS011;5071;52.360;13.134;2022-10-03T14:57:30;5.27;;;1.03;;
10063;SDS011;5071;52.360;13.134;2022-10-03T15:02:57;4.53;;;1.00;;
10063;SDS011;5071;52.360;13.134;2022-10-03T15:08:19;2.67;;;0.80;;
10063;SDS011;5071;52.360;13.134;2022-10-03T15:13:22;5.10;;;1.03;;
10063;SDS011;5071;52.360;13.134;2022-10-03T15:18:28;4.63;;;0.97;;
10063;SDS011;5071;52.360;13.134;2022-10-03T15:23:33;6.87;;;1.10;;
10063;SDS011;5071;52.360;13.134;2022-10-03T15:28:40;5.50;;;1.00;;
10063;SDS011;5071;52.360;13.134;2022-10-03T15:33:47;3.80;;;1.50;;
10063;SDS011;5071;52.360;13.134;2022-10-03T15:38:53;11.90;;;1.90;;
10063;SDS011;5071;52.360;13.134;2022-10-03T15:43:59;10.33;;;1.60;;
10063;SDS011;5071;52.360;13.134;2022-10-03T15:49:06;4.47;;;1.43;;
10063;SDS011;5071;52.360;13.134;2022-10-03T15:54:19;4.47;;;1.47;;
10063;SDS011;5071;52.360;13.134;2022-10-03T15:59:24;2.33;;;0.90;;
10063;SDS011;5071;52.360;13.134;2022-10-03T16:04:31;4.23;;;1.00;;
10063;SDS011;5071;52.360;13.134;2022-10-03T16:09:37;1.43;;;0.83;;
10063;SDS011;5071;52.360;13.134;2022-10-03T16:14:49;4.90;;;0.90;;
10063;SDS011;5071;52.360;13.134;2022-10-03T16:20:02;2.50;;;0.93;;
10063;SDS011;5071;52.360;13.134;2022-10-03T16:25:12;5.20;;;1.03;;
10063;SDS011;5071;52.360;13.134;2022-10-03T16:30:19;3.80;;;1.27;;
10063;SDS011;5071;52.360;13.134;2022-10-03T16:35:29;4.43;;;1.33;;
10063;SDS011;5071;52.360;13.134;2022-10-03T16:40:34;1.57;;;1.20;;
10063;SDS011;5071;52.360;13.134;2022-10-03T16:45:38;2.93;;;0.87;;
10063;SDS011;5071;52.360;13.134;2022-10-03T16:50:47;1.40;;;1.00;;
10063;SDS011;5071;52.360;13.134;2022-10-03T16:55:52;4.77;;;2.53;;
10063;SDS011;5071;52.360;13.134;2022-10-03T17:01:01;3.57;;;1.50;;
10063;SDS011;5071;52.360;13.134;2022-10-03T17:06:28;5.00;;;1.10;;
10063;SDS011;5071;52.360;13.134;2022-10-03T17:11:33;3.20;;;1.13;;
10063;SDS011;5071;52.360;13.134;2022-10-03T17:16:39;2.57;;;1.07;;
10063;SDS011;5071;52.360;13.134;2022-10-03T17:21:50;2.70;;;1.00;;
10063;SDS011;5071;52.360;13.134;2022-10-03T17:26:54;2.40;;;1.10;;
10063;SDS011;5071;52.360;13.134;2022-10-03T17:32:00;3.87;;;1.67;;
10063;SDS011;5071;52.360;13.134;2022-10-03T17:37:14;3.40;;;1.50;;
10063;SDS011;5071;52.360;13.134;2022-10-03T17:42:32;4.03;;;1.43;;
10063;SDS011;5071;52.360;13.134;2022-10-03T17:47:44;6.90;;;1.83;;
10063;SDS011;5071;52.360;13.134;2022-10-03T17:52:54;5.43;;;1.67;;
10063;SDS011;5071;52.360;13.134;2022-10-03T17:57:57;5.93;;;1.90;;
10063;SDS011;5071;52.360;13.134;2022-10-03T18:03:04;4.47;;;2.20;;
10063;SDS011;5071;52.360;13.134;2022-10-03T18:08:12;2.13;;;1.60;;
10063;SDS011;5071;52.360;13.134;2022-10-03T18:13:20;7.00;;;1.93;;
10063;SDS011;5071;52.360;13.134;2022-10-03T18:18:35;7.27;;;1.87;;
10063;SDS011;5071;52.360;13.134;2022-10-03T18:24:14;2.87;;;1.37;;
10063;SDS011;5071;52.360;13.134;2022-10-03T18:29:27;4.20;;;1.30;;
10063;SDS011;5071;52.360;13.134;2022-10-03T18:34:35;5.17;;;1.23;;
10063;SDS011;5071;52.360;13.134;2022-10-03T18:39:44;3.63;;;1.37;;
10063;SDS011;5071;52.360;13.134;2022-10-03T18:44:53;4.13;;;1.10;;
10063;SDS011;5071;52.360;13.134;2022-10-03T18:49:58;4.47;;;1.10;;
10063;SDS011;5071;52.360;13.134;2022-10-03T18:55:14;4.80;;;1.20;;
10063;SDS011;5071;52.360;13.134;2022-10-03T19:00:23;1.50;;;0.97;;
10063;SDS011;5071;52.360;13.134;2022-10-03T19:05:28;3.13;;;1.17;;
10063;SDS011;5071;52.360;13.134;2022-10-03T19:10:37;4.93;;;1.00;;
10063;SDS011;5071;52.360;13.134;2022-10-03T19:15:46;4.20;;;1.50;;
10063;SDS011;5071;52.360;13.134;2022-10-03T19:21:00;3.47;;;1.17;;
10063;SDS011;5071;52.360;13.134;2022-10-03T19:26:08;2.90;;;1.20;;
10063;SDS011;5071;52.360;13.134;2022-10-03T19:31:14;2.30;;;1.10;;
10063;SDS011;5071;52.360;13.134;2022-10-03T19:36:21;8.27;;;1.43;;
10063;SDS011;5071;52.360;13.134;2022-10-03T19:41:28;3.23;;;1.10;;
10063;SDS011;5071;52.360;13.134;2022-10-03T19:46:34;3.67;;;1.07;;
10063;SDS011;5071;52.360;13.134;2022-10-03T19:51:48;3.70;;;1.13;;
10063;SDS011;5071;52.360;13.134;2022-10-03T19:56:54;5.60;;;1.30;;
10063;SDS011;5071;52.360;13.134;2022-10-03T20:01:58;3.83;;;1.20;;
10063;SDS011;5071;52.360;13.134;2022-10-03T20:07:09;4.53;;;1.20;;
10063;SDS011;5071;52.360;13.134;2022-10-03T20:12:17;7.50;;;1.50;;
10063;SDS011;5071;52.360;13.134;2022-10-03T20:17:20;2.00;;;0.90;;
10063;SDS011;5071;52.360;13.134;2022-10-03T20:22:25;3.17;;;1.20;;
10063;SDS011;5071;52.360;13.134;2022-10-03T20:27:34;5.60;;;1.17;;
10063;SDS011;5071;52.360;13.134;2022-10-03T20:32:42;8.37;;;2.47;;
10063;SDS011;5071;52.360;13.134;2022-10-03T20:37:46;4.63;;;1.30;;
10063;SDS011;5071;52.360;13.134;2022-10-03T20:42:56;4.20;;;1.03;;
10063;SDS011;5071;52.360;13.134;2022-10-03T20:48:12;6.63;;;1.90;;
10063;SDS011;5071;52.360;13.134;2022-10-03T20:53:21;1.37;;;1.13;;
10063;SDS011;5071;52.360;13.134;2022-10-03T20:58:28;3.40;;;1.00;;
10063;SDS011;5071;52.360;13.134;2022-10-03T21:03:34;4.03;;;1.33;;
10063;SDS011;5071;52.360;13.134;2022-10-03T21:08:41;2.33;;;1.50;;
10063;SDS011;5071;52.360;13.134;2022-10-03T21:13:45;3.43;;;1.27;;
10063;SDS011;5071;52.360;13.134;2022-10-03T21:18:51;6.53;;;1.17;;
10063;SDS011;5071;52.360;13.134;2022-10-03T21:24:00;5.23;;;1.40;;
10063;SDS011;5071;52.360;13.134;2022-10-03T21:29:23;5.83;;;0.97;;
10063;SDS011;5071;52.360;13.134;2022-10-03T21:34:29;6.27;;;1.13;;
10063;SDS011;5071;52.360;13.134;2022-10-03T21:39:38;7.60;;;1.30;;
10063;SDS011;5071;52.360;13.134;2022-10-03T21:44:52;1.70;;;1.07;;
10063;SDS011;5071;52.360;13.134;2022-10-03T21:50:05;5.53;;;1.33;;
10063;SDS011;5071;52.360;13.134;2022-10-03T21:55:16;4.87;;;1.53;;
10063;SDS011;5071;52.360;13.134;2022-10-03T22:00:57;6.87;;;1.33;;
10063;SDS011;5071;52.360;13.134;2022-10-03T22:06:08;6.23;;;1.33;;
10063;SDS011;5071;52.360;13.134;2022-10-03T22:11:21;5.27;;;1.13;;
10063;SDS011;5071;52.360;13.134;2022-10-03T22:16:36;6.27;;;1.30;;
10063;SDS011;5071;52.360;13.134;2022-10-03T22:21:45;6.23;;;1.50;;
10063;SDS011;5071;52.360;13.134;2022-10-03T22:27:02;6.20;;;1.10;;
10063;SDS011;5071;52.360;13.134;2022-10-03T22:32:16;3.23;;;1.20;;
10063;SDS011;5071;52.360;13.134;2022-10-03T22:37:25;4.83;;;1.90;;
10063;SDS011;5071;52.360;13.134;2022-10-03T22:42:28;7.97;;;1.50;;
10063;SDS011;5071;52.360;13.134;2022-10-03T22:47:40;6.90;;;1.10;;
10063;SDS011;5071;52.360;13.134;2022-10-03T22:52:46;6.63;;;1.50;;
10063;SDS011;5071;52.360;13.134;2022-10-03T22:57:51;3.27;;;1.17;;
10063;SDS011;5071;52.360;13.134;2022-10-03T23:02:57;5.63;;;1.60;;
10063;SDS011;5071;52.360;13.134;2022-10-03T23:08:07;5.47;;;1.27;;
10063;SDS011;5071;52.360;13.134;2022-10-03T23:13:20;5.57;;;1.10;;
10063;SDS011;5071;52.360;13.134;2022-10-03T23:18:46;7.67;;;1.50;;
10063;SDS011;5071;52.360;13.134;2022-10-03T23:23:57;5.93;;;1.50;;
10063;SDS011;5071;52.360;13.134;2022-10-03T23:29:05;5.90;;;1.60;;
10063;SDS011;5071;52.360;13.134;2022-10-03T23:34:12;9.10;;;1.73;;
10063;SDS011;5071;52.360;13.134;2022-10-03T23:45:35;3.97;;;1.57;;
10063;SDS011;5071;52.360;13.134;2022-10-03T23:50:40;4.60;;;1.30;;
10063;SDS011;5071;52.360;13.134;2022-10-03T23:55:45;5.30;;;1.43;;
